sensor_id;sensor_type;location;lat;lon;timestamp;temperature;humidity
947;DHT22;460;48.734;9.152;2022-12-16T00:02:26;-1.80;99.90
947;DHT22;460;48.734;9.152;2022-12-16T00:04:54;-1.80;99.90
947;DHT22;460;48.734;9.152;2022-12-16T00:07:22;-1.90;99.90
947;DHT22;460;48.734;9.152;2022-12-16T00:09:48;-1.90;99.90
947;DHT22;460;48.734;9.152;2022-12-16T00:12:15;-1.90;99.90
947;DHT22;460;48.734;9.152;2022-12-16T00:14:42;-1.80;99.90
947;DHT22;460;48.734;9.152;2022-12-16T00:17:09;-1.80;99.90
947;DHT22;460;48.734;9.152;2022-12-16T00:19:35;-1.80;99.90
947;DHT22;460;48.734;9.152;2022-12-16T00:22:04;-1.90;99.90
947;DHT22;460;48.734;9.152;2022-12-16T00:24:30;-2.00;99.90
947;DHT22;460;48.734;9.152;2022-12-16T00:26:57;-1.80;99.90
947;DHT22;460;48.734;9.152;2022-12-16T00:29:24;-2.00;99.90
947;DHT22;460;48.734;9.152;2022-12-16T00:31:51;-2.00;99.90
947;DHT22;460;48.734;9.152;2022-12-16T00:34:17;-2.00;99.90
947;DHT22;460;48.734;9.152;2022-12-16T00:36:44;-2.10;99.90
947;DHT22;460;48.734;9.152;2022-12-16T00:39:12;-2.10;99.90
947;DHT22;460;48.734;9.152;2022-12-16T00:41:39;-2.10;99.90
947;DHT22;460;48.734;9.152;2022-12-16T00:44:06;-2.10;99.90
947;DHT22;460;48.734;9.152;2022-12-16T00:46:33;-2.00;99.90
947;DHT22;460;48.734;9.152;2022-12-16T00:48:59;-2.00;99.90
947;DHT22;460;48.734;9.152;2022-12-16T00:51:26;-2.00;99.90
947;DHT22;460;48.734;9.152;2022-12-16T00:53:53;-2.00;99.90
947;DHT22;460;48.734;9.152;2022-12-16T00:56:21;-2.00;99.90
947;DHT22;460;48.734;9.152;2022-12-16T00:58:48;-2.00;99.90
947;DHT22;460;48.734;9.152;2022-12-16T01:01:15;-2.10;99.90
947;DHT22;460;48.734;9.152;2022-12-16T01:03:42;-2.20;99.90
947;DHT22;460;48.734;9.152;2022-12-16T01:06:09;-2.10;99.90
947;DHT22;460;48.734;9.152;2022-12-16T01:08:36;-2.10;99.90
947;DHT22;460;48.734;9.152;2022-12-16T01:11:04;-2.10;99.90
947;DHT22;460;48.734;9.152;2022-12-16T01:13:32;-2.00;99.90
947;DHT22;460;48.734;9.152;2022-12-16T01:16:00;-2.10;99.90
947;DHT22;460;48.734;9.152;2022-12-16T01:18:26;-2.00;99.90
947;DHT22;460;48.734;9.152;2022-12-16T01:20:53;-2.10;99.90
947;DHT22;460;48.734;9.152;2022-12-16T01:23:20;-2.10;99.90
947;DHT22;460;48.734;9.152;2022-12-16T01:25:50;-2.20;99.90
947;DHT22;460;48.734;9.152;2022-12-16T01:28:18;-2.10;99.90
947;DHT22;460;48.734;9.152;2022-12-16T01:30:46;-2.10;99.90
947;DHT22;460;48.734;9.152;2022-12-16T01:33:13;-2.10;99.90
947;DHT22;460;48.734;9.152;2022-12-16T01:35:40;-2.10;99.90
947;DHT22;460;48.734;9.152;2022-12-16T01:38:07;-2.20;99.90
947;DHT22;460;48.734;9.152;2022-12-16T01:40:34;-2.10;99.90
947;DHT22;460;48.734;9.152;2022-12-16T01:43:01;-2.00;99.90
947;DHT22;460;48.734;9.152;2022-12-16T01:45:30;-2.10;99.90
947;DHT22;460;48.734;9.152;2022-12-16T01:48:03;-2.20;99.90
947;DHT22;460;48.734;9.152;2022-12-16T01:50:58;-2.10;99.90
947;DHT22;460;48.734;9.152;2022-12-16T01:53:27;-2.10;99.90
947;DHT22;460;48.734;9.152;2022-12-16T01:56:00;-2.20;99.90
947;DHT22;460;48.734;9.152;2022-12-16T01:58:38;-2.20;99.90
947;DHT22;460;48.734;9.152;2022-12-16T02:01:07;-2.10;99.90
947;DHT22;460;48.734;9.152;2022-12-16T02:03:36;-2.20;99.90
947;DHT22;460;48.734;9.152;2022-12-16T02:06:05;-2.30;99.90
947;DHT22;460;48.734;9.152;2022-12-16T02:08:33;-2.20;99.90
947;DHT22;460;48.734;9.152;2022-12-16T02:11:20;-2.30;99.90
947;DHT22;460;48.734;9.152;2022-12-16T02:16:46;-2.20;99.90
947;DHT22;460;48.734;9.152;2022-12-16T02:19:37;-2.20;99.90
947;DHT22;460;48.734;9.152;2022-12-16T02:22:17;-2.30;99.90
947;DHT22;460;48.734;9.152;2022-12-16T02:25:02;-2.30;99.90
947;DHT22;460;48.734;9.152;2022-12-16T02:27:48;-2.10;99.90
947;DHT22;460;48.734;9.152;2022-12-16T02:30:50;-2.10;99.90
947;DHT22;460;48.734;9.152;2022-12-16T02:33:31;-2.10;99.90
947;DHT22;460;48.734;9.152;2022-12-16T02:36:08;-2.10;99.90
947;DHT22;460;48.734;9.152;2022-12-16T02:38:43;-2.20;99.90
947;DHT22;460;48.734;9.152;2022-12-16T02:41:19;-2.20;99.90
947;DHT22;460;48.734;9.152;2022-12-16T02:43:52;-2.20;99.90
947;DHT22;460;48.734;9.152;2022-12-16T02:46:24;-2.20;99.90
947;DHT22;460;48.734;9.152;2022-12-16T02:48:54;-2.30;99.90
947;DHT22;460;48.734;9.152;2022-12-16T02:51:24;-2.30;99.90
947;DHT22;460;48.734;9.152;2022-12-16T02:53:53;-2.40;99.90
947;DHT22;460;48.734;9.152;2022-12-16T02:56:30;-2.30;99.90
947;DHT22;460;48.734;9.152;2022-12-16T02:59:10;-2.20;99.90
947;DHT22;460;48.734;9.152;2022-12-16T03:01:46;-2.20;99.90
947;DHT22;460;48.734;9.152;2022-12-16T03:04:18;-2.20;99.90
947;DHT22;460;48.734;9.152;2022-12-16T03:06:48;-2.20;99.90
947;DHT22;460;48.734;9.152;2022-12-16T03:09:20;-2.30;99.90
947;DHT22;460;48.734;9.152;2022-12-16T03:11:49;-2.30;99.90
947;DHT22;460;48.734;9.152;2022-12-16T03:14:21;-2.20;99.90
947;DHT22;460;48.734;9.152;2022-12-16T03:16:51;-2.30;99.90
947;DHT22;460;48.734;9.152;2022-12-16T03:19:20;-2.30;99.90
947;DHT22;460;48.734;9.152;2022-12-16T03:21:56;-2.30;99.90
947;DHT22;460;48.734;9.152;2022-12-16T03:24:26;-2.20;99.90
947;DHT22;460;48.734;9.152;2022-12-16T03:26:58;-2.20;99.90
947;DHT22;460;48.734;9.152;2022-12-16T03:29:34;-2.20;99.90
947;DHT22;460;48.734;9.152;2022-12-16T03:32:08;-2.30;99.90
947;DHT22;460;48.734;9.152;2022-12-16T03:34:40;-2.20;99.90
947;DHT22;460;48.734;9.152;2022-12-16T03:37:11;-2.20;99.90
947;DHT22;460;48.734;9.152;2022-12-16T03:39:42;-2.40;99.90
947;DHT22;460;48.734;9.152;2022-12-16T03:42:12;-2.30;99.90
947;DHT22;460;48.734;9.152;2022-12-16T03:44:41;-2.20;99.90
947;DHT22;460;48.734;9.152;2022-12-16T03:47:11;-2.30;99.90
947;DHT22;460;48.734;9.152;2022-12-16T03:49:39;-2.40;99.90
947;DHT22;460;48.734;9.152;2022-12-16T03:52:08;-2.40;99.90
947;DHT22;460;48.734;9.152;2022-12-16T03:54:36;-2.40;99.90
947;DHT22;460;48.734;9.152;2022-12-16T03:57:03;-2.40;99.90
947;DHT22;460;48.734;9.152;2022-12-16T03:59:31;-2.40;99.90
947;DHT22;460;48.734;9.152;2022-12-16T04:02:00;-2.40;99.90
947;DHT22;460;48.734;9.152;2022-12-16T04:04:28;-2.30;99.90
947;DHT22;460;48.734;9.152;2022-12-16T04:06:55;-2.30;99.90
947;DHT22;460;48.734;9.152;2022-12-16T04:09:36;-2.30;99.90
947;DHT22;460;48.734;9.152;2022-12-16T04:12:03;-2.30;99.90
947;DHT22;460;48.734;9.152;2022-12-16T04:14:47;-2.20;99.90
947;DHT22;460;48.734;9.152;2022-12-16T04:17:46;-2.30;99.90
947;DHT22;460;48.734;9.152;2022-12-16T04:20:35;-2.20;99.90
947;DHT22;460;48.734;9.152;2022-12-16T04:23:20;-2.20;99.90
947;DHT22;460;48.734;9.152;2022-12-16T04:26:06;-2.30;99.90
947;DHT22;460;48.734;9.152;2022-12-16T04:28:33;-2.40;99.90
947;DHT22;460;48.734;9.152;2022-12-16T04:30:59;-2.30;99.90
947;DHT22;460;48.734;9.152;2022-12-16T04:33:26;-2.20;99.90
947;DHT22;460;48.734;9.152;2022-12-16T04:36:12;-2.20;99.90
947;DHT22;460;48.734;9.152;2022-12-16T04:38:57;-2.30;99.90
947;DHT22;460;48.734;9.152;2022-12-16T04:41:41;-2.30;99.90
947;DHT22;460;48.734;9.152;2022-12-16T04:44:26;-2.40;99.90
947;DHT22;460;48.734;9.152;2022-12-16T04:47:10;-2.40;99.90
947;DHT22;460;48.734;9.152;2022-12-16T04:49:55;-2.50;99.90
947;DHT22;460;48.734;9.152;2022-12-16T04:52:40;-2.30;99.90
947;DHT22;460;48.734;9.152;2022-12-16T04:55:25;-2.30;99.90
947;DHT22;460;48.734;9.152;2022-12-16T04:58:09;-2.30;99.90
947;DHT22;460;48.734;9.152;2022-12-16T05:00:54;-2.30;99.90
947;DHT22;460;48.734;9.152;2022-12-16T05:03:38;-2.30;99.90
947;DHT22;460;48.734;9.152;2022-12-16T05:06:23;-2.20;99.90
947;DHT22;460;48.734;9.152;2022-12-16T05:09:09;-2.20;99.90
947;DHT22;460;48.734;9.152;2022-12-16T05:11:53;-2.30;99.90
947;DHT22;460;48.734;9.152;2022-12-16T05:14:37;-2.30;99.90
947;DHT22;460;48.734;9.152;2022-12-16T05:17:23;-2.30;99.90
947;DHT22;460;48.734;9.152;2022-12-16T05:20:08;-2.20;99.90
947;DHT22;460;48.734;9.152;2022-12-16T05:22:54;-2.30;99.90
947;DHT22;460;48.734;9.152;2022-12-16T05:25:40;-2.40;99.90
947;DHT22;460;48.734;9.152;2022-12-16T05:28:25;-2.40;99.90
947;DHT22;460;48.734;9.152;2022-12-16T05:31:09;-2.30;99.90
947;DHT22;460;48.734;9.152;2022-12-16T05:33:54;-2.20;99.90
947;DHT22;460;48.734;9.152;2022-12-16T05:36:38;-2.20;99.90
947;DHT22;460;48.734;9.152;2022-12-16T05:39:22;-2.20;99.90
947;DHT22;460;48.734;9.152;2022-12-16T05:42:08;-2.40;99.90
947;DHT22;460;48.734;9.152;2022-12-16T05:44:52;-2.40;99.90
947;DHT22;460;48.734;9.152;2022-12-16T05:47:37;-2.40;99.90
947;DHT22;460;48.734;9.152;2022-12-16T05:50:22;-2.50;99.90
947;DHT22;460;48.734;9.152;2022-12-16T05:53:07;-2.40;99.90
947;DHT22;460;48.734;9.152;2022-12-16T05:55:51;-2.40;99.90
947;DHT22;460;48.734;9.152;2022-12-16T05:58:37;-2.40;99.90
947;DHT22;460;48.734;9.152;2022-12-16T06:01:22;-2.40;99.90
947;DHT22;460;48.734;9.152;2022-12-16T06:04:06;-2.50;99.90
947;DHT22;460;48.734;9.152;2022-12-16T06:06:51;-2.60;99.90
947;DHT22;460;48.734;9.152;2022-12-16T06:09:35;-2.50;99.90
947;DHT22;460;48.734;9.152;2022-12-16T06:12:20;-2.50;99.90
947;DHT22;460;48.734;9.152;2022-12-16T06:15:06;-2.40;99.90
947;DHT22;460;48.734;9.152;2022-12-16T06:17:51;-2.40;99.90
947;DHT22;460;48.734;9.152;2022-12-16T06:20:35;-2.40;99.90
947;DHT22;460;48.734;9.152;2022-12-16T06:23:20;-2.50;99.90
947;DHT22;460;48.734;9.152;2022-12-16T06:26:05;-2.40;99.90
947;DHT22;460;48.734;9.152;2022-12-16T06:28:49;-2.50;99.90
947;DHT22;460;48.734;9.152;2022-12-16T06:31:35;-2.50;99.90
947;DHT22;460;48.734;9.152;2022-12-16T06:34:19;-2.50;99.90
947;DHT22;460;48.734;9.152;2022-12-16T06:37:04;-2.50;99.90
947;DHT22;460;48.734;9.152;2022-12-16T06:39:48;-2.50;99.90
947;DHT22;460;48.734;9.152;2022-12-16T06:42:33;-2.40;99.90
947;DHT22;460;48.734;9.152;2022-12-16T06:45:17;-2.40;99.90
947;DHT22;460;48.734;9.152;2022-12-16T06:48:03;-2.40;99.90
947;DHT22;460;48.734;9.152;2022-12-16T06:50:47;-2.50;99.90
947;DHT22;460;48.734;9.152;2022-12-16T06:53:31;-2.50;99.90
947;DHT22;460;48.734;9.152;2022-12-16T06:56:16;-2.40;99.90
947;DHT22;460;48.734;9.152;2022-12-16T06:59:00;-2.30;99.90
947;DHT22;460;48.734;9.152;2022-12-16T07:01:45;-2.20;99.90
947;DHT22;460;48.734;9.152;2022-12-16T07:04:45;-2.10;99.90
947;DHT22;460;48.734;9.152;2022-12-16T07:07:29;-2.20;99.90
947;DHT22;460;48.734;9.152;2022-12-16T07:10:14;-2.20;99.90
947;DHT22;460;48.734;9.152;2022-12-16T07:12:56;-2.20;99.90
947;DHT22;460;48.734;9.152;2022-12-16T07:15:40;-2.20;99.90
947;DHT22;460;48.734;9.152;2022-12-16T07:18:25;-2.20;99.90
947;DHT22;460;48.734;9.152;2022-12-16T07:21:10;-2.20;99.90
947;DHT22;460;48.734;9.152;2022-12-16T07:23:55;-2.10;99.90
947;DHT22;460;48.734;9.152;2022-12-16T07:26:39;-2.00;99.90
947;DHT22;460;48.734;9.152;2022-12-16T07:29:24;-2.00;99.90
947;DHT22;460;48.734;9.152;2022-12-16T07:32:08;-2.00;99.90
947;DHT22;460;48.734;9.152;2022-12-16T07:34:52;-2.00;99.90
947;DHT22;460;48.734;9.152;2022-12-16T07:37:38;-2.00;99.90
947;DHT22;460;48.734;9.152;2022-12-16T07:40:23;-2.10;99.90
947;DHT22;460;48.734;9.152;2022-12-16T07:43:07;-2.00;99.90
947;DHT22;460;48.734;9.152;2022-12-16T07:45:51;-2.00;99.90
947;DHT22;460;48.734;9.152;2022-12-16T07:48:36;-2.10;99.90
947;DHT22;460;48.734;9.152;2022-12-16T07:51:20;-2.00;99.90
947;DHT22;460;48.734;9.152;2022-12-16T07:54:06;-2.00;99.90
947;DHT22;460;48.734;9.152;2022-12-16T07:56:50;-2.00;99.90
947;DHT22;460;48.734;9.152;2022-12-16T07:59:35;-1.90;99.90
947;DHT22;460;48.734;9.152;2022-12-16T08:02:19;-1.10;99.90
947;DHT22;460;48.734;9.152;2022-12-16T08:05:04;-2.00;99.90
947;DHT22;460;48.734;9.152;2022-12-16T08:07:57;-2.00;99.90
947;DHT22;460;48.734;9.152;2022-12-16T08:10:43;-2.00;99.90
947;DHT22;460;48.734;9.152;2022-12-16T08:13:32;-1.90;99.90
947;DHT22;460;48.734;9.152;2022-12-16T08:16:17;-1.80;99.90
947;DHT22;460;48.734;9.152;2022-12-16T08:19:01;-1.80;99.90
947;DHT22;460;48.734;9.152;2022-12-16T08:21:45;-1.80;99.90
947;DHT22;460;48.734;9.152;2022-12-16T08:24:30;-1.70;99.90
947;DHT22;460;48.734;9.152;2022-12-16T08:27:15;-1.60;99.90
947;DHT22;460;48.734;9.152;2022-12-16T08:30:00;-1.70;99.90
947;DHT22;460;48.734;9.152;2022-12-16T08:32:44;-1.60;99.90
947;DHT22;460;48.734;9.152;2022-12-16T08:35:29;-1.60;99.90
947;DHT22;460;48.734;9.152;2022-12-16T08:38:13;-1.50;99.90
947;DHT22;460;48.734;9.152;2022-12-16T08:40:54;-1.40;99.90
947;DHT22;460;48.734;9.152;2022-12-16T08:43:40;-1.60;99.90
947;DHT22;460;48.734;9.152;2022-12-16T08:46:24;-1.70;99.90
947;DHT22;460;48.734;9.152;2022-12-16T08:49:08;-1.70;99.90
947;DHT22;460;48.734;9.152;2022-12-16T08:51:52;-1.80;99.90
947;DHT22;460;48.734;9.152;2022-12-16T08:54:37;-1.50;99.90
947;DHT22;460;48.734;9.152;2022-12-16T08:57:21;-1.60;99.90
947;DHT22;460;48.734;9.152;2022-12-16T09:00:08;-1.60;99.90
947;DHT22;460;48.734;9.152;2022-12-16T09:02:54;-1.70;99.90
947;DHT22;460;48.734;9.152;2022-12-16T09:05:38;-1.70;99.70
947;DHT22;460;48.734;9.152;2022-12-16T09:08:23;-1.80;99.60
947;DHT22;460;48.734;9.152;2022-12-16T09:11:07;-1.70;99.90
947;DHT22;460;48.734;9.152;2022-12-16T09:13:51;-1.60;99.90
947;DHT22;460;48.734;9.152;2022-12-16T09:16:37;-1.40;99.90
947;DHT22;460;48.734;9.152;2022-12-16T09:19:21;-1.40;99.90
947;DHT22;460;48.734;9.152;2022-12-16T09:22:06;-1.50;99.60
947;DHT22;460;48.734;9.152;2022-12-16T09:24:50;-1.50;99.40
947;DHT22;460;48.734;9.152;2022-12-16T09:27:35;-1.60;99.00
947;DHT22;460;48.734;9.152;2022-12-16T09:30:19;-1.60;99.00
947;DHT22;460;48.734;9.152;2022-12-16T09:33:05;-1.50;99.40
947;DHT22;460;48.734;9.152;2022-12-16T09:35:49;-1.50;99.20
947;DHT22;460;48.734;9.152;2022-12-16T09:38:36;-1.50;99.10
947;DHT22;460;48.734;9.152;2022-12-16T09:41:31;-1.50;98.90
947;DHT22;460;48.734;9.152;2022-12-16T09:44:25;-1.50;99.20
947;DHT22;460;48.734;9.152;2022-12-16T09:47:19;-1.40;99.10
947;DHT22;460;48.734;9.152;2022-12-16T09:50:17;-1.40;99.20
947;DHT22;460;48.734;9.152;2022-12-16T09:53:14;-1.30;99.60
947;DHT22;460;48.734;9.152;2022-12-16T09:56:02;-1.40;98.80
947;DHT22;460;48.734;9.152;2022-12-16T09:58:51;-1.40;97.80
947;DHT22;460;48.734;9.152;2022-12-16T10:01:37;-1.30;98.50
947;DHT22;460;48.734;9.152;2022-12-16T10:04:23;-1.40;98.00
947;DHT22;460;48.734;9.152;2022-12-16T10:07:13;-1.40;98.10
947;DHT22;460;48.734;9.152;2022-12-16T10:10:03;-1.30;97.90
947;DHT22;460;48.734;9.152;2022-12-16T10:12:58;-1.10;98.50
947;DHT22;460;48.734;9.152;2022-12-16T10:15:50;-1.00;98.10
947;DHT22;460;48.734;9.152;2022-12-16T10:18:45;-1.00;97.60
947;DHT22;460;48.734;9.152;2022-12-16T10:21:35;-0.90;98.30
947;DHT22;460;48.734;9.152;2022-12-16T10:24:31;-1.00;97.30
947;DHT22;460;48.734;9.152;2022-12-16T10:27:23;-1.20;96.50
947;DHT22;460;48.734;9.152;2022-12-16T10:30:13;-1.30;96.50
947;DHT22;460;48.734;9.152;2022-12-16T10:33:06;-1.20;96.90
947;DHT22;460;48.734;9.152;2022-12-16T10:35:53;-1.10;97.40
947;DHT22;460;48.734;9.152;2022-12-16T10:38:41;-0.90;97.40
947;DHT22;460;48.734;9.152;2022-12-16T10:41:32;-0.90;96.80
947;DHT22;460;48.734;9.152;2022-12-16T10:44:21;-1.10;95.90
947;DHT22;460;48.734;9.152;2022-12-16T10:47:06;-1.20;95.30
947;DHT22;460;48.734;9.152;2022-12-16T10:49:53;-1.20;95.70
947;DHT22;460;48.734;9.152;2022-12-16T10:52:44;-1.20;95.80
947;DHT22;460;48.734;9.152;2022-12-16T10:55:41;-1.10;96.40
947;DHT22;460;48.734;9.152;2022-12-16T10:58:37;-1.00;96.90
947;DHT22;460;48.734;9.152;2022-12-16T11:01:26;-0.90;96.70
947;DHT22;460;48.734;9.152;2022-12-16T11:04:30;-1.10;95.70
947;DHT22;460;48.734;9.152;2022-12-16T11:07:27;-1.20;95.20
947;DHT22;460;48.734;9.152;2022-12-16T11:10:28;-1.30;95.60
947;DHT22;460;48.734;9.152;2022-12-16T11:13:19;-1.30;96.10
947;DHT22;460;48.734;9.152;2022-12-16T11:16:13;-1.30;95.60
947;DHT22;460;48.734;9.152;2022-12-16T11:18:58;-1.30;95.60
947;DHT22;460;48.734;9.152;2022-12-16T11:21:42;-1.00;96.70
947;DHT22;460;48.734;9.152;2022-12-16T11:24:27;-1.10;95.10
947;DHT22;460;48.734;9.152;2022-12-16T11:27:14;-1.10;95.50
947;DHT22;460;48.734;9.152;2022-12-16T11:29:56;-1.20;95.30
947;DHT22;460;48.734;9.152;2022-12-16T11:32:45;-1.20;95.40
947;DHT22;460;48.734;9.152;2022-12-16T11:35:33;-1.20;95.40
947;DHT22;460;48.734;9.152;2022-12-16T11:38:23;-1.10;95.50
947;DHT22;460;48.734;9.152;2022-12-16T11:41:12;-1.10;95.80
947;DHT22;460;48.734;9.152;2022-12-16T11:43:57;-0.90;96.10
947;DHT22;460;48.734;9.152;2022-12-16T11:46:43;-0.80;96.00
947;DHT22;460;48.734;9.152;2022-12-16T11:49:30;-0.80;95.00
947;DHT22;460;48.734;9.152;2022-12-16T11:52:19;-0.80;94.90
947;DHT22;460;48.734;9.152;2022-12-16T11:55:15;-0.60;95.90
947;DHT22;460;48.734;9.152;2022-12-16T11:58:08;-0.40;95.70
947;DHT22;460;48.734;9.152;2022-12-16T12:01:01;-0.30;94.80
947;DHT22;460;48.734;9.152;2022-12-16T12:03:48;-0.40;94.20
947;DHT22;460;48.734;9.152;2022-12-16T12:06:48;-0.60;93.20
947;DHT22;460;48.734;9.152;2022-12-16T12:09:40;-0.50;94.70
947;DHT22;460;48.734;9.152;2022-12-16T12:12:32;-0.70;93.20
947;DHT22;460;48.734;9.152;2022-12-16T12:15:25;-0.60;94.20
947;DHT22;460;48.734;9.152;2022-12-16T12:18:17;-0.40;94.80
947;DHT22;460;48.734;9.152;2022-12-16T12:21:10;-0.20;95.00
947;DHT22;460;48.734;9.152;2022-12-16T12:24:04;-0.20;94.60
947;DHT22;460;48.734;9.152;2022-12-16T12:27:00;0.00;94.70
947;DHT22;460;48.734;9.152;2022-12-16T12:29:54;-0.10;94.10
947;DHT22;460;48.734;9.152;2022-12-16T12:32:48;-0.10;94.20
947;DHT22;460;48.734;9.152;2022-12-16T12:35:55;-0.40;92.90
947;DHT22;460;48.734;9.152;2022-12-16T12:38:51;-0.40;94.10
947;DHT22;460;48.734;9.152;2022-12-16T12:41:56;-0.40;93.80
947;DHT22;460;48.734;9.152;2022-12-16T12:44:52;-0.30;94.60
947;DHT22;460;48.734;9.152;2022-12-16T12:47:46;-0.30;94.20
947;DHT22;460;48.734;9.152;2022-12-16T12:50:38;-0.50;93.00
947;DHT22;460;48.734;9.152;2022-12-16T12:53:33;-0.50;93.70
947;DHT22;460;48.734;9.152;2022-12-16T12:56:27;-0.60;94.00
947;DHT22;460;48.734;9.152;2022-12-16T12:59:21;-0.50;94.00
947;DHT22;460;48.734;9.152;2022-12-16T13:02:10;-0.50;94.40
947;DHT22;460;48.734;9.152;2022-12-16T13:04:57;-0.60;93.80
947;DHT22;460;48.734;9.152;2022-12-16T13:07:42;-0.70;93.50
947;DHT22;460;48.734;9.152;2022-12-16T13:10:34;-0.70;93.80
947;DHT22;460;48.734;9.152;2022-12-16T13:13:36;-0.70;94.30
947;DHT22;460;48.734;9.152;2022-12-16T13:19:46;-0.50;95.10
947;DHT22;460;48.734;9.152;2022-12-16T13:22:36;-0.70;94.20
947;DHT22;460;48.734;9.152;2022-12-16T13:25:42;-0.70;94.10
947;DHT22;460;48.734;9.152;2022-12-16T13:28:31;-0.80;93.30
947;DHT22;460;48.734;9.152;2022-12-16T13:31:16;-0.80;94.00
947;DHT22;460;48.734;9.152;2022-12-16T13:34:19;-0.90;93.50
947;DHT22;460;48.734;9.152;2022-12-16T13:37:06;-0.80;94.40
947;DHT22;460;48.734;9.152;2022-12-16T13:40:04;-0.70;95.00
947;DHT22;460;48.734;9.152;2022-12-16T13:42:55;-0.70;94.30
947;DHT22;460;48.734;9.152;2022-12-16T13:45:42;-0.80;94.50
947;DHT22;460;48.734;9.152;2022-12-16T13:48:38;-0.80;94.80
947;DHT22;460;48.734;9.152;2022-12-16T13:55:03;-1.00;94.50
947;DHT22;460;48.734;9.152;2022-12-16T13:57:56;-1.00;95.50
947;DHT22;460;48.734;9.152;2022-12-16T14:00:54;-1.20;94.40
947;DHT22;460;48.734;9.152;2022-12-16T14:03:43;-1.30;94.30
947;DHT22;460;48.734;9.152;2022-12-16T14:06:29;-1.30;94.90
947;DHT22;460;48.734;9.152;2022-12-16T14:09:22;-1.40;94.80
947;DHT22;460;48.734;9.152;2022-12-16T14:12:15;-1.50;94.60
947;DHT22;460;48.734;9.152;2022-12-16T14:15:09;-1.40;95.00
947;DHT22;460;48.734;9.152;2022-12-16T14:17:59;-1.60;94.90
947;DHT22;460;48.734;9.152;2022-12-16T14:20:49;-1.70;94.60
947;DHT22;460;48.734;9.152;2022-12-16T14:23:39;-1.60;95.10
947;DHT22;460;48.734;9.152;2022-12-16T14:26:26;-1.60;94.90
947;DHT22;460;48.734;9.152;2022-12-16T14:29:17;-1.60;95.00
947;DHT22;460;48.734;9.152;2022-12-16T14:32:17;-1.70;94.70
947;DHT22;460;48.734;9.152;2022-12-16T14:35:01;-1.80;94.90
947;DHT22;460;48.734;9.152;2022-12-16T14:37:46;-1.80;94.80
947;DHT22;460;48.734;9.152;2022-12-16T14:40:31;-1.80;94.60
947;DHT22;460;48.734;9.152;2022-12-16T14:43:18;-1.80;95.00
947;DHT22;460;48.734;9.152;2022-12-16T14:46:04;-1.60;95.40
947;DHT22;460;48.734;9.152;2022-12-16T14:48:49;-1.70;94.90
947;DHT22;460;48.734;9.152;2022-12-16T14:51:35;-1.50;95.60
947;DHT22;460;48.734;9.152;2022-12-16T14:54:25;-1.60;95.00
947;DHT22;460;48.734;9.152;2022-12-16T14:57:13;-1.60;95.20
947;DHT22;460;48.734;9.152;2022-12-16T15:00:11;-1.50;95.00
947;DHT22;460;48.734;9.152;2022-12-16T15:03:00;-1.60;94.90
947;DHT22;460;48.734;9.152;2022-12-16T15:05:49;-1.60;94.80
947;DHT22;460;48.734;9.152;2022-12-16T15:08:36;-1.80;94.80
947;DHT22;460;48.734;9.152;2022-12-16T15:11:25;-1.70;95.00
947;DHT22;460;48.734;9.152;2022-12-16T15:14:22;-1.80;95.10
947;DHT22;460;48.734;9.152;2022-12-16T15:17:18;-1.70;95.60
947;DHT22;460;48.734;9.152;2022-12-16T15:20:05;-1.80;95.50
947;DHT22;460;48.734;9.152;2022-12-16T15:22:54;-1.80;95.10
947;DHT22;460;48.734;9.152;2022-12-16T15:25:39;-1.90;95.40
947;DHT22;460;48.734;9.152;2022-12-16T15:28:27;-1.90;95.50
947;DHT22;460;48.734;9.152;2022-12-16T15:31:23;-1.90;95.10
947;DHT22;460;48.734;9.152;2022-12-16T15:34:34;-2.00;95.10
947;DHT22;460;48.734;9.152;2022-12-16T15:37:23;-1.90;95.80
947;DHT22;460;48.734;9.152;2022-12-16T15:40:20;-1.90;95.70
947;DHT22;460;48.734;9.152;2022-12-16T15:43:15;-1.90;95.70
947;DHT22;460;48.734;9.152;2022-12-16T15:46:03;-2.00;95.60
947;DHT22;460;48.734;9.152;2022-12-16T15:48:49;-2.10;95.30
947;DHT22;460;48.734;9.152;2022-12-16T15:51:42;-2.10;95.50
947;DHT22;460;48.734;9.152;2022-12-16T15:54:29;-2.10;95.40
947;DHT22;460;48.734;9.152;2022-12-16T15:57:25;-2.20;95.40
947;DHT22;460;48.734;9.152;2022-12-16T16:00:19;-2.20;95.60
947;DHT22;460;48.734;9.152;2022-12-16T16:03:13;-2.20;95.40
947;DHT22;460;48.734;9.152;2022-12-16T16:05:59;-2.30;95.30
947;DHT22;460;48.734;9.152;2022-12-16T16:08:43;-2.30;95.20
947;DHT22;460;48.734;9.152;2022-12-16T16:11:29;-2.30;95.40
947;DHT22;460;48.734;9.152;2022-12-16T16:14:13;-2.20;95.70
947;DHT22;460;48.734;9.152;2022-12-16T16:16:58;-2.30;95.40
947;DHT22;460;48.734;9.152;2022-12-16T16:19:42;-2.30;95.60
947;DHT22;460;48.734;9.152;2022-12-16T16:22:26;-2.30;95.60
947;DHT22;460;48.734;9.152;2022-12-16T16:25:11;-2.30;95.80
947;DHT22;460;48.734;9.152;2022-12-16T16:27:57;-2.30;95.70
947;DHT22;460;48.734;9.152;2022-12-16T16:30:41;-2.30;95.90
947;DHT22;460;48.734;9.152;2022-12-16T16:33:34;-2.30;95.80
947;DHT22;460;48.734;9.152;2022-12-16T16:36:18;-2.30;95.80
947;DHT22;460;48.734;9.152;2022-12-16T16:39:02;-2.30;95.80
947;DHT22;460;48.734;9.152;2022-12-16T16:41:55;-2.20;95.90
947;DHT22;460;48.734;9.152;2022-12-16T16:44:41;-2.30;95.70
947;DHT22;460;48.734;9.152;2022-12-16T16:47:25;-2.30;95.80
947;DHT22;460;48.734;9.152;2022-12-16T16:50:13;-2.40;95.80
947;DHT22;460;48.734;9.152;2022-12-16T16:52:57;-2.40;96.10
947;DHT22;460;48.734;9.152;2022-12-16T16:55:41;-2.30;96.20
947;DHT22;460;48.734;9.152;2022-12-16T16:58:28;-2.30;96.10
947;DHT22;460;48.734;9.152;2022-12-16T17:01:16;-2.30;96.10
947;DHT22;460;48.734;9.152;2022-12-16T17:04:00;-2.30;96.10
947;DHT22;460;48.734;9.152;2022-12-16T17:07:00;-2.30;96.10
947;DHT22;460;48.734;9.152;2022-12-16T17:09:44;-2.30;96.00
947;DHT22;460;48.734;9.152;2022-12-16T17:12:29;-2.30;96.50
947;DHT22;460;48.734;9.152;2022-12-16T17:15:16;-2.40;96.20
947;DHT22;460;48.734;9.152;2022-12-16T17:18:03;-2.40;96.20
947;DHT22;460;48.734;9.152;2022-12-16T17:20:44;-2.40;96.40
947;DHT22;460;48.734;9.152;2022-12-16T17:23:28;-2.30;96.50
947;DHT22;460;48.734;9.152;2022-12-16T17:26:12;-2.30;96.00
947;DHT22;460;48.734;9.152;2022-12-16T17:28:59;-2.30;96.10
947;DHT22;460;48.734;9.152;2022-12-16T17:31:43;-2.30;96.20
947;DHT22;460;48.734;9.152;2022-12-16T17:34:29;-2.30;96.10
947;DHT22;460;48.734;9.152;2022-12-16T17:37:14;-2.40;96.00
947;DHT22;460;48.734;9.152;2022-12-16T17:39:58;-2.30;96.40
947;DHT22;460;48.734;9.152;2022-12-16T17:42:43;-2.20;96.80
947;DHT22;460;48.734;9.152;2022-12-16T17:45:27;-2.10;97.10
947;DHT22;460;48.734;9.152;2022-12-16T17:48:12;-2.00;97.10
947;DHT22;460;48.734;9.152;2022-12-16T17:51:00;-2.00;96.80
947;DHT22;460;48.734;9.152;2022-12-16T17:53:44;-1.90;97.10
947;DHT22;460;48.734;9.152;2022-12-16T17:56:29;-1.90;96.50
947;DHT22;460;48.734;9.152;2022-12-16T17:59:13;-1.90;96.50
947;DHT22;460;48.734;9.152;2022-12-16T18:01:58;-2.00;96.60
947;DHT22;460;48.734;9.152;2022-12-16T18:04:42;-2.00;96.30
947;DHT22;460;48.734;9.152;2022-12-16T18:07:28;-2.20;95.90
947;DHT22;460;48.734;9.152;2022-12-16T18:10:13;-2.10;96.40
947;DHT22;460;48.734;9.152;2022-12-16T18:12:57;-2.10;96.60
947;DHT22;460;48.734;9.152;2022-12-16T18:15:53;-2.10;96.30
947;DHT22;460;48.734;9.152;2022-12-16T18:18:37;-2.10;97.10
947;DHT22;460;48.734;9.152;2022-12-16T18:21:21;-2.00;97.00
947;DHT22;460;48.734;9.152;2022-12-16T18:24:08;-2.00;96.90
947;DHT22;460;48.734;9.152;2022-12-16T18:26:52;-2.00;96.90
947;DHT22;460;48.734;9.152;2022-12-16T18:29:37;-2.00;96.60
947;DHT22;460;48.734;9.152;2022-12-16T18:32:22;-2.10;96.20
947;DHT22;460;48.734;9.152;2022-12-16T18:35:06;-2.20;96.20